Time;durP1;ratioP1;P1;durP2;ratioP2;P2;SDS_P1;SDS_P2;PMS_P1;PMS_P2;Temp;Humidity;BMP_temperature;BMP_pressure;BME280_temperature;BME280_humidity;BME280_pressure;Samples;Min_cycle;Max_cycle;Signal;HPM_P1;HPM_P2
2023/07/16 00:00:36;;;;;;;4.28;0.52;;;17.00;99.90;;;;;;5055261;28;20056;-76
2023/07/16 00:03:02;;;;;;;1.90;0.05;;;17.00;99.90;;;;;;5073210;28;20012;-76
2023/07/16 00:05:27;;;;;;;4.78;0.03;;;17.10;99.90;;;;;;5073279;28;20071;-76
2023/07/16 00:07:53;;;;;;;2.67;0.25;;;17.10;99.90;;;;;;5073109;28;20028;-75
2023/07/16 00:10:18;;;;;;;4.15;0.28;;;17.10;99.90;;;;;;5073129;28;20020;-75
2023/07/16 00:12:44;;;;;;;2.28;0.10;;;17.20;99.90;;;;;;5055086;28;20423;-75
2023/07/16 00:15:10;;;;;;;6.97;0.35;;;17.20;99.90;;;;;;5072994;28;20027;-75
2023/07/16 00:17:35;;;;;;;5.97;0.40;;;17.10;99.90;;;;;;5073033;28;20060;-75
2023/07/16 00:20:01;;;;;;;3.45;0.68;;;17.20;99.90;;;;;;5072924;28;20040;-75
2023/07/16 00:22:27;;;;;;;2.63;0.17;;;17.10;99.90;;;;;;5073076;28;20028;-75
2023/07/16 00:24:52;;;;;;;3.58;0.13;;;17.10;99.90;;;;;;5054905;28;20040;-75
2023/07/16 00:27:18;;;;;;;1.35;0.20;;;17.20;99.90;;;;;;5055051;28;20111;-75
2023/07/16 00:29:43;;;;;;;3.92;0.17;;;17.20;99.90;;;;;;5055007;28;20025;-75
2023/07/16 00:32:09;;;;;;;5.43;0.68;;;17.20;99.90;;;;;;5054937;28;20032;-75
2023/07/16 00:34:34;;;;;;;4.28;0.65;;;17.10;99.90;;;;;;5054901;28;20028;-75
2023/07/16 00:37:02;;;;;;;4.47;0.80;;;17.60;99.90;;;;;;5072927;28;20032;-75
2023/07/16 00:39:28;;;;;;;5.55;0.30;;;17.10;99.90;;;;;;5072928;28;20412;-74
2023/07/16 00:41:54;;;;;;;6.45;0.77;;;17.10;99.90;;;;;;5072930;28;20062;-76
2023/07/16 00:44:20;;;;;;;3.65;0.10;;;18.00;99.90;;;;;;5073297;28;20469;-76
2023/07/16 00:46:45;;;;;;;3.83;0.32;;;17.10;99.90;;;;;;5054750;28;20033;-75
2023/07/16 00:49:11;;;;;;;2.33;0.22;;;17.10;99.90;;;;;;5054705;28;20491;-75
2023/07/16 00:51:37;;;;;;;5.07;0.47;;;17.10;99.90;;;;;;5054706;28;20078;-75
2023/07/16 00:54:03;;;;;;;3.30;0.10;;;17.00;99.90;;;;;;5072665;28;20032;-75
2023/07/16 00:56:29;;;;;;;5.53;1.00;;;17.10;99.90;;;;;;5075241;28;20028;-75
2023/07/16 00:58:54;;;;;;;3.28;0.20;;;17.00;99.90;;;;;;5076547;28;20021;-75
2023/07/16 01:01:20;;;;;;;4.53;0.40;;;17.00;99.90;;;;;;5076905;28;20036;-75
2023/07/16 01:03:45;;;;;;;6.78;0.82;;;17.00;99.90;;;;;;5076358;28;20028;-75
2023/07/16 01:06:15;;;;;;;4.38;0.30;;;17.00;99.90;;;;;;5076244;28;20028;-75
2023/07/16 01:09:01;;;;;;;2.00;0.10;;;16.90;99.90;;;;;;5058302;28;20020;-75
2023/07/16 01:11:27;;;;;;;3.45;0.30;;;16.90;99.90;;;;;;5076852;28;20025;-75
2023/07/16 01:13:53;;;;;;;5.13;0.50;;;16.90;99.90;;;;;;5076190;28;20025;-75
2023/07/16 01:16:24;;;;;;;2.85;0.73;;;17.30;99.90;;;;;;5058329;28;20072;-75
2023/07/16 01:18:51;;;;;;;4.95;0.65;;;17.00;99.90;;;;;;5076583;28;20500;-74
2023/07/16 01:21:25;;;;;;;6.75;0.55;;;17.00;99.90;;;;;;5076783;28;20487;-75
2023/07/16 01:24:24;;;;;;;5.80;0.73;;;17.00;99.90;;;;;;5058416;28;20064;-75
2023/07/16 01:26:59;;;;;;;3.90;0.35;;;17.00;99.90;;;;;;5018029;28;20468;-76
2023/07/16 01:29:29;;;;;;;5.38;0.30;;;17.10;99.90;;;;;;5059375;28;20033;-75
2023/07/16 01:31:58;;;;;;;1.23;0.20;;;17.10;99.90;;;;;;5076779;28;20190;-75
2023/07/16 01:34:26;;;;;;;6.25;0.85;;;17.10;99.90;;;;;;5058007;28;20021;-75
2023/07/16 01:36:52;;;;;;;5.82;0.40;;;17.10;99.90;;;;;;5075797;28;20024;-74
2023/07/16 01:39:18;;;;;;;5.78;0.55;;;17.00;99.90;;;;;;5075732;28;20498;-75
2023/07/16 01:41:44;;;;;;;5.35;0.43;;;17.00;99.90;;;;;;5075779;28;20029;-77
2023/07/16 01:44:09;;;;;;;4.47;0.68;;;17.00;99.90;;;;;;5057762;28;20027;-76
2023/07/16 01:46:35;;;;;;;3.60;0.45;;;17.00;99.90;;;;;;5057641;28;20067;-76
2023/07/16 01:49:00;;;;;;;4.82;0.30;;;17.00;99.90;;;;;;5057686;28;20020;-76
2023/07/16 01:51:26;;;;;;;5.93;0.30;;;17.00;99.90;;;;;;5076148;28;20025;-77
2023/07/16 01:53:52;;;;;;;7.90;1.95;;;16.90;99.90;;;;;;5075395;28;20070;-76
2023/07/16 01:56:18;;;;;;;4.07;0.40;;;17.00;99.90;;;;;;5057510;28;20392;-75
2023/07/16 01:58:43;;;;;;;5.85;0.52;;;17.00;99.90;;;;;;5057476;28;20024;-77
2023/07/16 02:01:09;;;;;;;4.22;0.52;;;17.00;99.90;;;;;;5075247;28;20111;-76
2023/07/16 02:03:34;;;;;;;4.57;0.47;;;17.00;99.90;;;;;;5075249;28;20064;-76
2023/07/16 02:06:00;;;;;;;5.28;0.65;;;17.10;99.90;;;;;;5075668;28;20027;-76
2023/07/16 02:08:26;;;;;;;5.82;0.52;;;17.00;99.90;;;;;;5074362;28;20025;-76
2023/07/16 02:10:51;;;;;;;3.00;0.90;;;16.90;99.90;;;;;;5075244;28;20048;-75
2023/07/16 02:13:17;;;;;;;7.13;0.65;;;17.00;99.90;;;;;;5074947;28;20104;-76
2023/07/16 02:15:43;;;;;;;10.50;1.40;;;17.00;99.90;;;;;;5075083;28;20013;-75
2023/07/16 02:18:08;;;;;;;7.10;0.95;;;17.00;99.90;;;;;;5075013;28;20025;-76
2023/07/16 02:20:34;;;;;;;6.80;1.02;;;17.00;99.90;;;;;;5075002;28;20533;-76
2023/07/16 02:23:00;;;;;;;2.97;1.00;;;17.40;99.90;;;;;;5056822;28;20021;-76
2023/07/16 02:25:25;;;;;;;4.85;0.70;;;16.90;99.90;;;;;;5074755;28;20028;-76
2023/07/16 02:27:51;;;;;;;5.60;1.00;;;16.90;99.90;;;;;;5074725;28;20492;-76
2023/07/16 02:30:17;;;;;;;8.52;0.90;;;16.90;99.90;;;;;;5074749;28;20020;-76
2023/07/16 02:32:43;;;;;;;4.93;0.55;;;16.90;99.90;;;;;;5056798;28;20017;-76
2023/07/16 02:35:09;;;;;;;5.28;1.10;;;16.90;99.90;;;;;;5056648;28;20476;-76
2023/07/16 02:37:34;;;;;;;4.82;0.90;;;16.90;99.90;;;;;;5056751;28;20476;-76
2023/07/16 02:40:00;;;;;;;8.32;0.85;;;16.80;99.90;;;;;;5056737;28;20016;-76
2023/07/16 02:42:26;;;;;;;6.05;0.70;;;16.90;99.90;;;;;;5056642;28;20021;-76
2023/07/16 02:44:51;;;;;;;2.17;0.30;;;16.90;99.90;;;;;;5056505;28;20025;-76
2023/07/16 02:47:17;;;;;;;3.20;0.68;;;16.90;99.90;;;;;;5056404;28;20024;-76
2023/07/16 02:49:42;;;;;;;4.63;0.90;;;16.90;99.90;;;;;;5074501;28;20024;-76
2023/07/16 02:52:08;;;;;;;1.95;0.85;;;17.00;99.90;;;;;;5074301;28;20024;-76
2023/07/16 02:54:35;;;;;;;3.55;0.30;;;16.80;99.90;;;;;;5074280;28;20021;-76
2023/07/16 02:57:01;;;;;;;7.28;1.15;;;16.90;99.90;;;;;;5074210;28;20052;-76
2023/07/16 02:59:27;;;;;;;4.50;0.73;;;16.80;99.90;;;;;;5074725;28;20060;-76
2023/07/16 03:01:53;;;;;;;5.22;0.75;;;16.80;99.90;;;;;;5057125;28;20048;-76
2023/07/16 03:04:19;;;;;;;3.13;0.52;;;16.70;99.90;;;;;;5074112;28;20012;-76
2023/07/16 03:06:44;;;;;;;4.88;0.57;;;16.70;99.90;;;;;;5074006;28;20039;-76
2023/07/16 03:09:10;;;;;;;4.05;1.33;;;16.70;99.90;;;;;;5056396;28;20020;-76
2023/07/16 03:11:35;;;;;;;4.80;0.73;;;16.70;99.90;;;;;;5074061;28;20032;-76
2023/07/16 03:14:01;;;;;;;5.32;0.52;;;17.60;99.90;;;;;;5056044;28;20043;-76
2023/07/16 03:16:27;;;;;;;5.43;1.30;;;16.70;99.90;;;;;;5055958;28;20035;-76
2023/07/16 03:18:53;;;;;;;1.23;0.52;;;16.70;99.90;;;;;;5073793;28;20040;-76
2023/07/16 03:21:18;;;;;;;7.22;0.55;;;16.70;99.90;;;;;;5073689;28;20029;-76
2023/07/16 03:23:44;;;;;;;3.72;0.52;;;16.70;99.90;;;;;;5073845;28;20032;-76
2023/07/16 03:26:09;;;;;;;7.93;1.15;;;16.60;99.90;;;;;;5055727;28;20032;-76
2023/07/16 03:28:35;;;;;;;5.05;0.60;;;16.60;99.90;;;;;;5055738;28;20390;-76
2023/07/16 03:31:01;;;;;;;4.50;0.40;;;16.60;99.90;;;;;;5073774;28;20495;-76
2023/07/16 03:33:27;;;;;;;5.07;0.30;;;16.60;99.90;;;;;;5055510;28;20085;-76
2023/07/16 03:35:52;;;;;;;4.30;0.50;;;17.10;99.90;;;;;;5073540;28;20017;-76
2023/07/16 03:38:18;;;;;;;6.28;0.75;;;16.50;99.90;;;;;;5055637;28;20499;-76
2023/07/16 03:40:47;;;;;;;6.22;0.93;;;16.60;99.90;;;;;;5055582;28;20503;-76
2023/07/16 03:43:12;;;;;;;3.50;1.23;;;16.60;99.90;;;;;;5055517;28;20027;-76
2023/07/16 03:45:38;;;;;;;3.22;0.50;;;16.60;99.90;;;;;;5073341;28;20480;-76
2023/07/16 03:48:04;;;;;;;4.25;0.38;;;16.60;99.90;;;;;;5073465;28;20118;-76
2023/07/16 03:50:31;;;;;;;4.78;0.75;;;16.60;99.90;;;;;;5055656;28;20551;-76
2023/07/16 03:52:56;;;;;;;6.32;0.30;;;16.60;99.90;;;;;;5073221;28;20093;-76
2023/07/16 03:55:22;;;;;;;4.82;0.50;;;16.60;99.90;;;;;;5055327;28;20115;-76
2023/07/16 03:57:47;;;;;;;7.82;0.68;;;16.70;99.90;;;;;;5074039;28;20028;-77
2023/07/16 04:00:13;;;;;;;5.22;0.32;;;16.70;99.90;;;;;;5073702;28;20035;-76
2023/07/16 04:02:38;;;;;;;5.95;1.42;;;16.70;99.90;;;;;;5055240;28;20435;-76
2023/07/16 04:05:04;;;;;;;4.55;0.32;;;16.80;99.90;;;;;;5073121;28;20476;-76
2023/07/16 04:07:30;;;;;;;6.95;1.00;;;16.70;99.90;;;;;;5073689;28;20048;-76
2023/07/16 04:09:56;;;;;;;10.68;1.20;;;16.70;99.90;;;;;;5073118;28;20447;-76
2023/07/16 04:12:21;;;;;;;5.75;0.63;;;16.70;99.90;;;;;;5073705;28;20048;-76
2023/07/16 04:14:47;;;;;;;5.55;0.98;;;16.70;99.90;;;;;;5073009;28;20055;-76
2023/07/16 04:17:13;;;;;;;7.82;1.60;;;16.80;99.90;;;;;;5073085;28;20051;-76
2023/07/16 04:19:39;;;;;;;5.25;0.80;;;16.80;99.90;;;;;;5055067;28;20455;-76
2023/07/16 04:22:05;;;;;;;8.20;1.77;;;16.90;99.90;;;;;;5073060;28;20056;-76
2023/07/16 04:24:30;;;;;;;7.82;1.17;;;16.90;99.90;;;;;;5072875;28;20094;-76
2023/07/16 04:26:57;;;;;;;4.72;1.27;;;16.90;99.90;;;;;;5055123;28;20028;-75
2023/07/16 04:29:23;;;;;;;7.03;1.27;;;16.90;99.90;;;;;;5055051;28;20013;-77
2023/07/16 04:31:48;;;;;;;5.55;0.45;;;17.50;99.90;;;;;;5076632;28;20023;-76
2023/07/16 04:34:14;;;;;;;4.35;0.55;;;16.90;99.90;;;;;;5077305;28;20029;-76
2023/07/16 04:36:39;;;;;;;5.47;0.80;;;16.90;99.90;;;;;;5076881;28;20059;-76
2023/07/16 04:39:05;;;;;;;7.88;1.33;;;16.90;99.90;;;;;;5076769;28;20024;-76
2023/07/16 04:41:31;;;;;;;8.57;1.45;;;16.90;99.90;;;;;;5077072;28;20531;-76
2023/07/16 04:43:56;;;;;;;9.32;1.02;;;17.00;99.90;;;;;;5076701;28;20028;-76
2023/07/16 04:46:22;;;;;;;3.10;1.00;;;17.00;99.90;;;;;;5077252;28;20411;-76
2023/07/16 04:48:47;;;;;;;6.35;1.17;;;17.10;99.90;;;;;;5076608;28;20107;-76
2023/07/16 04:51:13;;;;;;;5.45;0.77;;;17.10;99.90;;;;;;5076681;28;20095;-76
2023/07/16 04:53:39;;;;;;;3.03;1.02;;;17.10;99.90;;;;;;5077005;28;20078;-76
2023/07/16 04:56:10;;;;;;;5.72;1.05;;;17.10;99.90;;;;;;5076421;28;20025;-75
2023/07/16 04:58:35;;;;;;;3.78;0.77;;;17.00;99.90;;;;;;5058609;28;20033;-74
2023/07/16 05:01:01;;;;;;;2.85;0.77;;;17.20;99.90;;;;;;5058459;28;20017;-74
2023/07/16 05:03:26;;;;;;;5.60;0.70;;;17.20;99.90;;;;;;5076725;28;20047;-74
2023/07/16 05:05:52;;;;;;;9.88;1.35;;;17.20;99.90;;;;;;5076495;28;20121;-74
2023/07/16 05:08:17;;;;;;;6.15;1.25;;;17.20;99.90;;;;;;5058363;28;20081;-74
2023/07/16 05:10:43;;;;;;;6.03;0.60;;;17.20;99.90;;;;;;5076160;28;20031;-74
2023/07/16 05:13:08;;;;;;;6.25;0.85;;;17.30;99.90;;;;;;5076138;28;20051;-73
2023/07/16 05:15:34;;;;;;;5.20;0.65;;;17.40;99.90;;;;;;5076159;28;20031;-73
2023/07/16 05:17:59;;;;;;;9.43;1.73;;;17.40;99.90;;;;;;5076596;28;20032;-74
2023/07/16 05:20:25;;;;;;;4.22;0.95;;;17.40;99.90;;;;;;5058217;28;20028;-74
2023/07/16 05:22:51;;;;;;;3.70;0.60;;;17.40;99.90;;;;;;5075926;28;20108;-74
2023/07/16 05:25:16;;;;;;;3.25;1.10;;;17.50;99.90;;;;;;5058034;28;20082;-73
2023/07/16 05:27:42;;;;;;;4.00;0.93;;;17.50;99.90;;;;;;5075908;28;20131;-73
2023/07/16 05:30:08;;;;;;;3.97;0.98;;;17.40;99.90;;;;;;5075989;28;20017;-74
2023/07/16 05:32:33;;;;;;;6.60;0.80;;;17.50;99.90;;;;;;5057947;28;20024;-73
2023/07/16 05:34:59;;;;;;;2.28;0.65;;;17.60;99.90;;;;;;5075773;28;20472;-74
2023/07/16 05:37:26;;;;;;;6.60;1.80;;;17.60;99.90;;;;;;5075809;28;20024;-74
2023/07/16 05:39:51;;;;;;;3.25;1.10;;;17.60;99.90;;;;;;5075993;28;20035;-74
2023/07/16 05:42:17;;;;;;;5.45;0.98;;;17.60;99.90;;;;;;5075095;28;20029;-74
2023/07/16 05:44:44;;;;;;;6.80;0.63;;;17.80;99.90;;;;;;5075548;28;20531;-74
2023/07/16 05:47:10;;;;;;;8.40;1.60;;;17.70;99.90;;;;;;5075562;28;20020;-74
2023/07/16 05:49:35;;;;;;;4.35;1.20;;;17.80;99.90;;;;;;5076171;28;20021;-74
2023/07/16 05:52:01;;;;;;;5.15;1.10;;;17.70;99.90;;;;;;5075617;28;20020;-74
2023/07/16 05:54:26;;;;;;;6.97;1.02;;;17.80;99.90;;;;;;5075454;28;20477;-74
2023/07/16 05:56:53;;;;;;;6.07;1.27;;;17.80;99.90;;;;;;5075468;28;20025;-74
2023/07/16 05:59:18;;;;;;;8.07;1.38;;;17.90;99.90;;;;;;5075427;28;20031;-74
2023/07/16 06:01:44;;;;;;;10.90;1.70;;;18.00;99.90;;;;;;5075436;28;20028;-74
2023/07/16 06:04:09;;;;;;;6.80;1.50;;;18.00;99.90;;;;;;5057271;28;20070;-74
2023/07/16 06:06:35;;;;;;;7.82;1.00;;;17.90;99.90;;;;;;5075123;28;20028;-74
2023/07/16 06:09:01;;;;;;;4.30;0.80;;;18.00;99.90;;;;;;5057276;28;20020;-74
2023/07/16 06:11:26;;;;;;;5.40;1.33;;;18.00;99.90;;;;;;5075184;28;20025;-74
2023/07/16 06:13:55;;;;;;;3.60;0.82;;;18.00;99.90;;;;;;5075096;28;20043;-74
2023/07/16 06:16:20;;;;;;;4.88;1.08;;;18.10;99.90;;;;;;5075078;28;20029;-74
2023/07/16 06:18:46;;;;;;;7.25;1.23;;;18.10;99.90;;;;;;5057053;28;20035;-74
2023/07/16 06:21:12;;;;;;;4.97;0.90;;;18.20;99.90;;;;;;5075481;28;20463;-74
2023/07/16 06:23:38;;;;;;;5.05;1.15;;;18.20;99.90;;;;;;5074820;28;20383;-74
2023/07/16 06:26:03;;;;;;;4.53;0.75;;;18.30;99.90;;;;;;5074756;28;20036;-74
2023/07/16 06:28:29;;;;;;;9.48;1.55;;;18.30;99.90;;;;;;5075360;28;20016;-74
2023/07/16 06:30:55;;;;;;;5.30;1.02;;;18.40;99.90;;;;;;5074730;28;20496;-74
2023/07/16 06:33:20;;;;;;;7.15;1.10;;;18.40;99.90;;;;;;5074708;28;20146;-74
2023/07/16 06:35:50;;;;;;;7.75;0.55;;;18.50;99.90;;;;;;5056772;28;20016;-75
2023/07/16 06:38:15;;;;;;;6.15;1.08;;;18.50;99.90;;;;;;5074595;28;20399;-73
2023/07/16 06:40:53;;;;;;;7.50;1.25;;;18.50;99.90;;;;;;5075198;28;20107;-73
2023/07/16 06:43:19;;;;;;;6.20;1.03;;;18.50;99.90;;;;;;5075199;28;20035;-73
2023/07/16 06:45:45;;;;;;;5.15;1.52;;;18.60;99.90;;;;;;5056598;28;20025;-74
2023/07/16 06:48:10;;;;;;;3.40;0.90;;;18.50;99.90;;;;;;5074305;28;20020;-73
2023/07/16 06:50:36;;;;;;;6.70;1.38;;;18.50;99.90;;;;;;5074398;28;20449;-74
2023/07/16 06:53:01;;;;;;;5.53;1.95;;;18.60;99.90;;;;;;5073871;28;20095;-73
2023/07/16 06:55:27;;;;;;;5.97;1.60;;;18.60;99.90;;;;;;5074147;28;20028;-72
2023/07/16 06:57:52;;;;;;;3.40;0.80;;;18.70;99.90;;;;;;5074168;28;20388;-73
2023/07/16 07:00:18;;;;;;;4.53;1.15;;;18.60;99.90;;;;;;5056199;28;20025;-73
2023/07/16 07:02:44;;;;;;;3.20;1.02;;;18.70;99.90;;;;;;5074728;28;20028;-74
2023/07/16 07:05:09;;;;;;;7.75;1.25;;;18.80;99.90;;;;;;5056076;28;20029;-73
2023/07/16 07:07:35;;;;;;;7.20;1.73;;;18.90;99.90;;;;;;5056123;28;20124;-74
2023/07/16 07:10:01;;;;;;;3.38;1.10;;;19.10;99.90;;;;;;5056118;28;20047;-73
2023/07/16 07:12:27;;;;;;;8.23;1.42;;;19.00;99.90;;;;;;5074201;28;20495;-73
2023/07/16 07:14:52;;;;;;;8.95;1.67;;;19.00;99.90;;;;;;5073982;28;20012;-74
2023/07/16 07:17:18;;;;;;;3.95;1.10;;;18.90;99.90;;;;;;5074045;28;20032;-74
2023/07/16 07:19:44;;;;;;;5.15;1.42;;;18.90;99.90;;;;;;5055905;28;20025;-74
2023/07/16 07:22:10;;;;;;;5.72;1.30;;;19.10;99.90;;;;;;5055826;28;20020;-74
2023/07/16 07:24:35;;;;;;;4.45;1.35;;;19.10;99.90;;;;;;5073474;28;20067;-74
2023/07/16 07:27:01;;;;;;;8.30;1.13;;;19.10;99.90;;;;;;5055678;28;20094;-73
2023/07/16 07:29:27;;;;;;;6.97;1.00;;;19.00;99.90;;;;;;5074289;28;20020;-72
2023/07/16 07:31:52;;;;;;;5.05;1.20;;;19.10;99.90;;;;;;5074267;28;20372;-74
2023/07/16 07:34:18;;;;;;;3.42;1.30;;;19.30;99.90;;;;;;5073640;28;20028;-76
2023/07/16 07:36:44;;;;;;;6.60;1.30;;;19.50;99.90;;;;;;5073842;28;20025;-73
2023/07/16 07:39:10;;;;;;;5.50;1.25;;;19.70;99.90;;;;;;5055702;28;20373;-75
2023/07/16 07:41:36;;;;;;;6.47;1.45;;;19.60;99.90;;;;;;5073936;28;20444;-74
2023/07/16 07:44:01;;;;;;;7.18;1.48;;;19.50;99.90;;;;;;5055535;28;20025;-75
2023/07/16 07:46:27;;;;;;;7.53;2.03;;;19.20;99.90;;;;;;5073342;28;20116;-75
2023/07/16 07:48:53;;;;;;;12.02;1.40;;;19.10;99.90;;;;;;5073515;28;20027;-73
2023/07/16 07:51:19;;;;;;;5.93;1.73;;;19.00;99.90;;;;;;5055400;28;20025;-73
2023/07/16 07:53:45;;;;;;;3.63;1.63;;;19.00;99.90;;;;;;5055434;28;20013;-73
2023/07/16 07:56:10;;;;;;;4.88;1.35;;;19.20;99.90;;;;;;5073306;28;20067;-73
2023/07/16 07:58:36;;;;;;;6.10;1.38;;;19.50;99.90;;;;;;5073261;28;20426;-73
2023/07/16 08:01:08;;;;;;;9.48;1.50;;;19.90;99.90;;;;;;5073211;28;20051;-74
2023/07/16 08:03:34;;;;;;;4.47;1.25;;;20.20;99.90;;;;;;5073170;28;20024;-73
2023/07/16 08:06:00;;;;;;;7.07;1.63;;;20.20;99.90;;;;;;5054490;28;20032;-73
2023/07/16 08:08:26;;;;;;;6.97;1.02;;;20.30;99.90;;;;;;5073133;28;20036;-72
2023/07/16 08:10:51;;;;;;;6.45;0.80;;;20.20;99.90;;;;;;5073181;28;20455;-74
2023/07/16 08:13:17;;;;;;;4.03;1.52;;;20.30;99.90;;;;;;5073064;28;20036;-73
2023/07/16 08:15:43;;;;;;;5.30;1.45;;;20.10;99.90;;;;;;5073263;28;20027;-74
2023/07/16 08:18:09;;;;;;;4.28;1.77;;;20.10;99.90;;;;;;5073157;28;20033;-76
2023/07/16 08:20:40;;;;;;;4.35;1.23;;;20.10;99.90;;;;;;5055290;28;20029;-72
2023/07/16 08:23:06;;;;;;;5.80;1.25;;;20.30;99.90;;;;;;5055040;28;20040;-72
2023/07/16 08:25:31;;;;;;;3.65;1.05;;;20.50;99.90;;;;;;5072922;28;20036;-75
2023/07/16 08:27:57;;;;;;;4.63;1.55;;;20.70;99.90;;;;;;5073014;28;20021;-75
2023/07/16 08:30:22;;;;;;;5.32;1.40;;;20.50;99.90;;;;;;5073539;28;20032;-73
2023/07/16 08:32:48;;;;;;;8.25;1.50;;;20.50;99.90;;;;;;5055062;28;20020;-75
2023/07/16 08:35:16;;;;;;;7.65;1.23;;;20.40;99.90;;;;;;5072884;28;20407;-74
2023/07/16 08:37:46;;;;;;;6.97;1.95;;;20.30;99.90;;;;;;5055027;28;20056;-75
2023/07/16 08:40:12;;;;;;;6.65;1.90;;;20.00;99.90;;;;;;5072896;28;20028;-75
2023/07/16 08:42:39;;;;;;;4.47;1.08;;;19.70;99.90;;;;;;5072861;28;20025;-76
2023/07/16 08:45:10;;;;;;;2.22;0.80;;;19.60;99.90;;;;;;5072920;28;20365;-74
2023/07/16 08:47:36;;;;;;;9.60;1.90;;;19.70;99.90;;;;;;5054938;28;20156;-74
2023/07/16 08:50:02;;;;;;;9.63;1.92;;;19.60;99.90;;;;;;5072797;28;20031;-73
2023/07/16 08:52:28;;;;;;;8.05;2.00;;;20.00;99.90;;;;;;5054866;28;20032;-73
2023/07/16 08:54:54;;;;;;;4.05;1.02;;;20.20;99.90;;;;;;5072656;28;20472;-74
2023/07/16 08:57:21;;;;;;;4.78;1.25;;;20.20;99.90;;;;;;5054844;28;20025;-72
2023/07/16 08:59:50;;;;;;;6.57;1.77;;;20.10;99.90;;;;;;5072883;28;20360;-74
2023/07/16 09:02:20;;;;;;;8.57;1.48;;;20.20;99.90;;;;;;5073245;28;20024;-73
2023/07/16 09:04:48;;;;;;;6.97;1.77;;;20.40;99.90;;;;;;5072672;28;20029;-74
2023/07/16 09:07:13;;;;;;;10.02;1.48;;;20.60;99.90;;;;;;5072802;28;20112;-72
2023/07/16 09:09:39;;;;;;;3.40;0.95;;;20.60;99.90;;;;;;5054640;28;20447;-74
2023/07/16 09:12:05;;;;;;;6.70;1.83;;;20.40;99.90;;;;;;5072548;28;20025;-73
2023/07/16 09:14:31;;;;;;;4.22;1.80;;;20.40;99.90;;;;;;5072425;28;20108;-72
2023/07/16 09:16:56;;;;;;;6.97;1.35;;;20.30;99.90;;;;;;5056123;28;20119;-73
2023/07/16 09:19:22;;;;;;;6.68;0.70;;;20.20;99.90;;;;;;5076204;28;20058;-73
2023/07/16 09:21:49;;;;;;;4.28;1.25;;;20.20;99.90;;;;;;5076119;28;20025;-73
2023/07/16 09:24:15;;;;;;;5.38;1.38;;;20.10;99.90;;;;;;5076023;28;20020;-74
2023/07/16 09:26:54;;;;;;;3.95;1.13;;;20.20;99.90;;;;;;5075879;28;20039;-73
2023/07/16 09:29:20;;;;;;;3.72;1.02;;;20.30;99.90;;;;;;5076767;28;20021;-77
2023/07/16 09:31:57;;;;;;;3.60;0.80;;;20.60;99.90;;;;;;5076072;28;20032;-73
2023/07/16 09:34:23;;;;;;;9.82;2.20;;;20.60;99.90;;;;;;5075801;28;20031;-74
2023/07/16 09:36:49;;;;;;;2.92;1.02;;;20.30;99.90;;;;;;5076389;28;20035;-73
2023/07/16 09:39:21;;;;;;;6.65;1.15;;;20.40;99.90;;;;;;5075769;28;20033;-74
2023/07/16 09:41:48;;;;;;;7.18;1.50;;;20.40;99.90;;;;;;5075804;28;20021;-74
2023/07/16 09:44:15;;;;;;;5.18;1.15;;;20.30;99.90;;;;;;5075709;28;20024;-74
2023/07/16 09:46:41;;;;;;;6.53;1.33;;;20.30;99.90;;;;;;5075578;28;20013;-74
2023/07/16 09:49:07;;;;;;;4.75;1.40;;;20.30;99.90;;;;;;5057835;28;20369;-73
2023/07/16 09:51:35;;;;;;;5.88;1.50;;;20.20;99.90;;;;;;5075626;28;20407;-73
2023/07/16 09:54:02;;;;;;;8.25;1.27;;;20.10;99.90;;;;;;5075730;28;20079;-73
2023/07/16 09:56:50;;;;;;;3.22;1.00;;;20.00;99.90;;;;;;5075516;28;20449;-73
2023/07/16 09:59:17;;;;;;;;;;;20.20;99.90;;;;;;5075992;28;20100;-72
2023/07/16 10:01:43;;;;;;;5.68;1.60;;;20.60;99.90;;;;;;5057566;28;19909;-76
2023/07/16 10:04:19;;;;;;;2.80;1.00;;;20.90;99.90;;;;;;5075743;28;20024;-74
2023/07/16 10:07:00;;;;;;;8.07;1.70;;;21.20;99.90;;;;;;5075316;28;20029;-74
2023/07/16 10:09:56;;;;;;;6.45;1.15;;;21.40;99.90;;;;;;5075275;28;20032;-73
2023/07/16 10:12:26;;;;;;;17.02;0.88;;;21.30;99.90;;;;;;5074127;28;20044;-73
2023/07/16 10:14:53;;;;;;;4.70;1.00;;;21.10;99.90;;;;;;5075638;28;20139;-73
2023/07/16 10:17:20;;;;;;;3.42;0.55;;;20.90;99.90;;;;;;5075206;28;20028;-73
2023/07/16 10:20:12;;;;;;;2.47;1.00;;;20.50;99.90;;;;;;5075060;28;20025;-73
2023/07/16 10:22:48;;;;;;;4.60;1.42;;;20.20;99.90;;;;;;5075109;28;20028;-74
2023/07/16 10:25:20;;;;;;;6.32;0.90;;;20.30;99.90;;;;;;5074822;28;20404;-73
2023/07/16 10:27:47;;;;;;;3.97;1.20;;;20.30;99.90;;;;;;5056391;28;20039;-74
2023/07/16 10:30:13;;;;;;;3.08;0.80;;;20.50;99.90;;;;;;5074675;28;20016;-72
2023/07/16 10:32:39;;;;;;;8.57;2.20;;;20.80;99.90;;;;;;5074831;28;20070;-73
2023/07/16 10:35:06;;;;;;;4.90;0.68;;;21.00;99.90;;;;;;5074785;28;20099;-73
2023/07/16 10:37:32;;;;;;;4.88;1.52;;;21.20;99.90;;;;;;5074719;28;20020;-73
2023/07/16 10:39:59;;;;;;;5.15;1.23;;;21.40;99.90;;;;;;5056701;28;20035;-73
2023/07/16 10:42:26;;;;;;;5.38;1.35;;;21.30;99.90;;;;;;5074675;28;20023;-73
2023/07/16 10:44:53;;;;;;;9.55;2.38;;;21.30;99.90;;;;;;5074586;28;20028;-73
2023/07/16 10:47:31;;;;;;;5.07;1.00;;;21.10;99.90;;;;;;5074543;28;20024;-74
2023/07/16 10:49:57;;;;;;;6.30;1.15;;;21.00;99.90;;;;;;5074596;28;20437;-73
2023/07/16 10:52:23;;;;;;;4.03;1.00;;;21.00;99.90;;;;;;5056556;28;20012;-74
2023/07/16 10:54:51;;;;;;;3.35;0.60;;;20.80;99.90;;;;;;5074306;28;20021;-74
2023/07/16 10:57:19;;;;;;;8.73;1.60;;;21.10;99.90;;;;;;5074477;28;20028;-74
2023/07/16 10:59:45;;;;;;;1.95;0.20;;;21.10;99.90;;;;;;5074231;28;20052;-74
2023/07/16 11:02:12;;;;;;;4.13;0.85;;;21.20;99.90;;;;;;5074619;28;20048;-74
2023/07/16 11:04:38;;;;;;;7.00;1.52;;;21.30;99.90;;;;;;5074125;28;20066;-73
2023/07/16 11:07:09;;;;;;;2.08;0.60;;;21.40;99.90;;;;;;5074153;28;20049;-72
2023/07/16 11:09:42;;;;;;;2.92;0.10;;;21.90;99.90;;;;;;5074599;28;20021;-74
2023/07/16 11:12:09;;;;;;;3.03;0.35;;;21.90;99.60;;;;;;5056130;28;20020;-74
2023/07/16 11:14:35;;;;;;;3.28;0.30;;;22.00;99.90;;;;;;5073951;28;20476;-74
2023/07/16 11:17:08;;;;;;;2.47;0.57;;;22.10;99.90;;;;;;5074514;28;20615;-73
2023/07/16 11:19:36;;;;;;;4.82;0.30;;;21.90;99.90;;;;;;5056062;28;20024;-73
2023/07/16 11:22:03;;;;;;;;;;;21.70;99.90;;;;;;5074361;28;20025;-73
2023/07/16 11:24:35;;;;;;;7.82;0.60;;;21.70;99.90;;;;;;5073982;28;19927;-71
2023/07/16 11:27:01;;;;;;;4.30;0.32;;;21.70;99.90;;;;;;5074305;28;20031;-72
2023/07/16 11:29:34;;;;;;;3.05;0.40;;;21.50;99.90;;;;;;5073773;28;20384;-73
2023/07/16 11:31:59;;;;;;;4.05;0.90;;;21.50;99.90;;;;;;5073666;28;20024;-72
2023/07/16 11:34:25;;;;;;;4.88;0.20;;;21.40;99.90;;;;;;5073604;28;20127;-72
2023/07/16 11:36:54;;;;;;;2.08;0.22;;;21.30;99.90;;;;;;5073599;28;20107;-73
2023/07/16 11:39:20;;;;;;;1.60;0.60;;;21.40;99.90;;;;;;5073198;28;20044;-73
2023/07/16 11:41:58;;;;;;;3.15;0.50;;;21.50;99.90;;;;;;5073124;28;20178;-77
2023/07/16 11:44:24;;;;;;;2.85;0.55;;;21.90;99.90;;;;;;5055538;28;20036;-71
2023/07/16 11:46:50;;;;;;;7.57;0.65;;;22.00;99.90;;;;;;5055484;28;20029;-73
2023/07/16 11:49:15;;;;;;;5.38;0.60;;;21.70;99.50;;;;;;5073612;28;20036;-74
2023/07/16 11:51:43;;;;;;;6.05;0.40;;;21.80;99.70;;;;;;5073887;28;20021;-74
2023/07/16 11:54:09;;;;;;;4.43;0.20;;;22.10;99.90;;;;;;5055371;28;20024;-72
2023/07/16 11:56:35;;;;;;;0.52;0.13;;;22.10;99.10;;;;;;5073556;28;20031;-75
2023/07/16 11:59:01;;;;;;;2.20;0.05;;;22.60;99.10;;;;;;5073391;28;20032;-74
2023/07/16 12:01:26;;;;;;;3.55;0.68;;;22.60;97.30;;;;;;5055259;28;20024;-74
2023/07/16 12:03:52;;;;;;;2.13;0.30;;;22.60;97.20;;;;;;5055155;28;20025;-75
2023/07/16 12:06:18;;;;;;;4.40;0.40;;;22.60;96.80;;;;;;5073823;28;20020;-75
2023/07/16 12:08:43;;;;;;;2.30;0.32;;;22.70;97.10;;;;;;5055242;28;20024;-73
2023/07/16 12:11:09;;;;;;;1.50;0.10;;;23.00;97.10;;;;;;5073253;28;20022;-73
2023/07/16 12:13:34;;;;;;;2.00;0.45;;;23.00;96.80;;;;;;5073041;28;20158;-73
2023/07/16 12:16:00;;;;;;;1.30;0.20;;;23.10;96.90;;;;;;5073695;28;20029;-73
2023/07/16 12:18:26;;;;;;;2.00;0.08;;;23.20;96.70;;;;;;5073173;28;20028;-74
2023/07/16 12:20:52;;;;;;;3.03;0.10;;;23.60;96.60;;;;;;5073163;28;20480;-73
2023/07/16 12:23:17;;;;;;;2.45;0.10;;;23.60;95.90;;;;;;5073013;28;20017;-73
2023/07/16 12:25:43;;;;;;;2.63;0.22;;;23.70;95.50;;;;;;5073040;28;20039;-73
2023/07/16 12:28:09;;;;;;;1.08;0.25;;;23.50;95.40;;;;;;5055184;28;20020;-73
2023/07/16 12:30:34;;;;;;;1.77;0.03;;;23.70;95.50;;;;;;5073069;28;20096;-74
2023/07/16 12:33:00;;;;;;;2.40;0.32;;;23.60;95.30;;;;;;5055360;28;20021;-73
2023/07/16 12:35:25;;;;;;;3.63;0.22;;;23.60;95.80;;;;;;5072940;28;20087;-73
2023/07/16 12:37:51;;;;;;;4.38;0.20;;;23.70;95.80;;;;;;5055125;28;20078;-74
2023/07/16 12:40:17;;;;;;;2.72;0.73;;;23.70;95.80;;;;;;5073473;28;20039;-73
2023/07/16 12:42:42;;;;;;;2.05;0.20;;;24.00;95.60;;;;;;5073546;28;20048;-73
2023/07/16 12:45:08;;;;;;;1.30;0.20;;;24.30;94.90;;;;;;5054863;28;20028;-73